createdAt,value
2018-07-25T00:01:59.785Z,72.50
2018-07-25T00:04:27.437Z,72.80
2018-07-25T00:06:55.022Z,73.10
2018-07-25T00:09:22.657Z,72.80
2018-07-25T00:11:50.514Z,72.90
2018-07-25T00:14:18.146Z,73.50
2018-07-25T00:16:45.832Z,73.60
2018-07-25T00:19:13.417Z,73.10
2018-07-25T00:21:41.033Z,73.00
2018-07-25T00:24:08.875Z,72.90
2018-07-25T00:26:36.444Z,73.70
2018-07-25T00:29:07.061Z,74.00
2018-07-25T00:31:34.783Z,74.50
2018-07-25T00:34:02.698Z,74.60
2018-07-25T00:36:31.373Z,74.00
2018-07-25T00:38:58.972Z,74.30
2018-07-25T00:41:26.495Z,74.40
2018-07-25T00:43:54.080Z,74.50
2018-07-25T00:46:21.619Z,75.00
2018-07-25T00:48:49.500Z,75.10
2018-07-25T00:51:17.225Z,75.40
2018-07-25T00:53:44.781Z,75.70
2018-07-25T00:56:12.655Z,76.00
2018-07-25T00:58:40.305Z,76.40
2018-07-25T01:01:07.888Z,76.60
2018-07-25T01:03:35.454Z,76.80
2018-07-25T01:06:03.349Z,77.10
2018-07-25T01:08:30.973Z,77.40
2018-07-25T01:10:58.828Z,77.90
2018-07-25T01:13:26.419Z,78.30
2018-07-25T01:15:53.993Z,78.80
2018-07-25T01:18:21.860Z,78.90
2018-07-25T01:20:49.449Z,79.20
2018-07-25T01:23:17.009Z,79.70
2018-07-25T01:25:44.544Z,79.90
2018-07-25T01:28:12.213Z,80.30
2018-07-25T01:30:40.634Z,80.60
2018-07-25T01:33:08.307Z,80.80
2018-07-25T01:35:35.891Z,80.90
2018-07-25T01:38:03.511Z,80.90
2018-07-25T01:40:31.558Z,81.40
2018-07-25T01:42:59.116Z,81.60
2018-07-25T01:45:26.681Z,81.30
2018-07-25T01:47:54.257Z,81.30
2018-07-25T01:50:21.833Z,81.20
2018-07-25T01:52:49.721Z,82.00
2018-07-25T01:55:17.305Z,82.20
2018-07-25T01:57:44.897Z,82.30
2018-07-25T02:00:12.462Z,82.30
2018-07-25T02:02:40.240Z,82.50
2018-07-25T02:05:07.902Z,82.70
2018-07-25T02:07:35.505Z,82.90
2018-07-25T02:10:03.814Z,83.40
2018-07-25T02:12:31.493Z,83.60
2018-07-25T02:14:59.124Z,84.30
2018-07-25T02:17:26.673Z,84.70
2018-07-25T02:19:54.233Z,84.80
2018-07-25T02:22:21.993Z,84.70
2018-07-25T02:24:49.557Z,85.10
2018-07-25T02:27:17.106Z,85.10
2018-07-25T02:29:44.752Z,85.70
2018-07-25T02:32:13.377Z,86.00
2018-07-25T02:34:40.974Z,86.40
2018-07-25T02:37:09.666Z,86.70
2018-07-25T02:39:37.362Z,86.70
2018-07-25T02:42:04.935Z,86.60
2018-07-25T02:44:32.537Z,87.20
2018-07-25T02:47:00.293Z,87.70
2018-07-25T02:49:27.913Z,88.30
2018-07-25T02:51:55.497Z,89.00
2018-07-25T02:54:23.113Z,89.20
2018-07-25T02:56:50.848Z,89.30
2018-07-25T02:59:18.725Z,89.10
2018-07-25T03:01:46.253Z,89.30
2018-07-25T03:04:13.881Z,89.70
2018-07-25T03:06:41.545Z,89.70
2018-07-25T03:09:09.805Z,90.10
2018-07-25T03:11:37.732Z,90.30
2018-07-25T03:14:05.327Z,90.30
2018-07-25T03:16:33.210Z,90.40
2018-07-25T03:19:00.789Z,90.50
2018-07-25T03:21:28.401Z,90.70
2018-07-25T03:23:55.966Z,91.00
2018-07-25T03:26:23.514Z,91.30
2018-07-25T03:28:51.161Z,91.10
2018-07-25T03:31:19.251Z,91.20
2018-07-25T03:36:14.661Z,91.40
2018-07-25T03:38:42.609Z,91.30
2018-07-25T03:41:10.306Z,91.50
2018-07-25T03:43:37.945Z,91.80
2018-07-25T03:46:05.509Z,91.60
2018-07-25T03:48:37.569Z,91.60
2018-07-25T03:51:09.316Z,91.70
2018-07-25T03:53:37.061Z,91.60
2018-07-25T03:56:04.758Z,91.70
2018-07-25T03:58:32.344Z,91.70
2018-07-25T04:00:59.933Z,91.50
2018-07-25T04:03:27.777Z,91.60
2018-07-25T04:05:55.509Z,91.70
2018-07-25T04:08:23.110Z,91.70
2018-07-25T04:10:51.197Z,91.70
2018-07-25T04:13:18.957Z,91.60
2018-07-25T04:15:46.769Z,91.60
2018-07-25T04:18:14.352Z,91.40
2018-07-25T04:20:41.941Z,91.90
2018-07-25T04:23:10.528Z,91.70
2018-07-25T04:25:38.125Z,91.70
2018-07-25T04:28:05.711Z,91.80
2018-07-25T04:30:33.289Z,91.80
2018-07-25T04:33:00.878Z,91.60
2018-07-25T04:35:28.453Z,91.40
2018-07-25T04:37:56.228Z,91.70
2018-07-25T04:40:23.828Z,91.30
2018-07-25T04:42:51.453Z,91.10
2018-07-25T04:45:19.022Z,91.20
2018-07-25T04:47:48.776Z,90.90
2018-07-25T04:50:16.678Z,90.70
2018-07-25T04:52:44.632Z,91.00
2018-07-25T04:55:12.193Z,91.00
2018-07-25T04:57:43.786Z,91.30
2018-07-25T05:00:11.375Z,91.40
2018-07-25T05:02:39.003Z,91.30
2018-07-25T05:05:06.661Z,91.00
2018-07-25T05:07:34.197Z,90.90
2018-07-25T05:10:02.086Z,90.60
2018-07-25T05:12:29.738Z,90.40
2018-07-25T05:14:57.352Z,90.30
2018-07-25T05:17:25.054Z,90.20
2018-07-25T05:19:52.685Z,90.10
2018-07-25T05:22:20.377Z,90.00
2018-07-25T05:24:47.948Z,89.80
2018-07-25T05:27:15.602Z,89.70
2018-07-25T05:29:44.761Z,89.60
2018-07-25T05:32:14.278Z,89.80
2018-07-25T05:34:42.495Z,89.40
2018-07-25T05:37:10.098Z,89.30
2018-07-25T05:39:37.753Z,89.70
2018-07-25T05:42:05.425Z,89.90
2018-07-25T05:44:33.049Z,89.80
2018-07-25T05:47:00.605Z,89.40
2018-07-25T05:49:28.148Z,89.40
2018-07-25T05:51:55.720Z,89.30
2018-07-25T05:54:23.330Z,89.30
2018-07-25T05:56:50.932Z,89.50
2018-07-25T05:59:18.620Z,89.10
2018-07-25T06:01:46.333Z,89.00
2018-07-25T06:04:14.041Z,88.70
2018-07-25T06:06:41.611Z,88.30
2018-07-25T06:09:09.834Z,88.40
2018-07-25T06:11:37.565Z,88.00
2018-07-25T06:14:05.241Z,88.10
2018-07-25T06:16:32.878Z,87.50
2018-07-25T06:19:00.580Z,87.00
2018-07-25T06:21:28.237Z,87.20
2018-07-25T06:23:55.892Z,87.10
2018-07-25T06:26:23.444Z,86.80
2018-07-25T06:28:51.060Z,86.60
2018-07-25T06:31:18.714Z,85.90
2018-07-25T06:33:46.360Z,85.60
2018-07-25T06:36:13.920Z,85.30
2018-07-25T06:38:44.434Z,85.10
2018-07-25T06:41:12.081Z,85.30
2018-07-25T06:43:39.705Z,85.30
2018-07-25T06:46:07.521Z,84.40
2018-07-25T06:48:35.102Z,83.70
2018-07-25T06:51:02.665Z,84.30
2018-07-25T06:53:30.258Z,84.20
2018-07-25T06:55:57.865Z,83.60
2018-07-25T06:58:25.420Z,83.70
2018-07-25T07:00:53.010Z,83.40
2018-07-25T07:03:20.589Z,83.30
2018-07-25T07:05:48.164Z,83.50
2018-07-25T07:08:15.722Z,82.90
2018-07-25T07:10:43.314Z,82.50
2018-07-25T07:13:10.901Z,82.40
2018-07-25T07:15:38.468Z,81.80
2018-07-25T07:18:06.094Z,81.50
2018-07-25T07:20:33.684Z,81.40
2018-07-25T07:23:01.278Z,81.00
2018-07-25T07:25:28.816Z,81.40
2018-07-25T07:27:56.365Z,80.90
2018-07-25T07:30:23.922Z,80.80
2018-07-25T07:32:51.521Z,80.80
2018-07-25T07:35:19.097Z,80.60
2018-07-25T07:37:46.711Z,81.30
2018-07-25T07:40:14.252Z,80.20
2018-07-25T07:42:42.461Z,80.60
2018-07-25T07:45:10.029Z,80.30
2018-07-25T07:47:38.101Z,79.70
2018-07-25T07:50:05.838Z,80.20
2018-07-25T07:52:33.721Z,79.30
2018-07-25T07:55:01.287Z,78.10
2018-07-25T07:57:28.877Z,78.00
2018-07-25T07:59:56.441Z,77.70
2018-07-25T08:02:24.004Z,77.90
2018-07-25T08:07:19.192Z,76.90
2018-07-25T08:09:46.732Z,76.70
2018-07-25T08:12:14.312Z,77.10
2018-07-25T08:14:42.404Z,76.00
2018-07-25T08:17:09.987Z,76.20
2018-07-25T08:19:37.566Z,75.40
2018-07-25T08:22:05.210Z,74.90
2018-07-25T08:27:00.299Z,75.70
2018-07-25T08:29:28.201Z,75.00
2018-07-25T08:31:55.809Z,74.00
2018-07-25T08:34:23.454Z,73.80
2018-07-25T08:36:51.089Z,73.40
2018-07-25T08:39:19.317Z,72.60
2018-07-25T08:41:47.046Z,73.50
2018-07-25T08:44:14.495Z,72.90
2018-07-25T08:46:42.073Z,71.80
2018-07-25T08:49:09.653Z,72.30
2018-07-25T08:51:37.172Z,73.00
2018-07-25T08:54:04.897Z,72.40
2018-07-25T08:56:32.454Z,71.60
2018-07-25T08:59:06.813Z,70.00
2018-07-25T09:01:34.338Z,70.10
2018-07-25T09:04:01.924Z,70.20
2018-07-25T09:06:29.506Z,69.10
2018-07-25T09:08:57.042Z,69.50
2018-07-25T09:11:25.510Z,69.60
2018-07-25T09:13:53.128Z,68.20
2018-07-25T09:16:20.765Z,68.30
2018-07-25T09:18:48.326Z,68.90
2018-07-25T09:21:15.877Z,68.40
2018-07-25T09:23:43.419Z,68.30
2018-07-25T09:26:10.972Z,67.60
2018-07-25T09:28:38.990Z,67.60
2018-07-25T09:31:06.562Z,66.90
2018-07-25T09:33:34.197Z,66.50
2018-07-25T09:36:01.767Z,66.90
2018-07-25T09:38:29.346Z,66.00
2018-07-25T09:40:57.511Z,66.00
2018-07-25T09:43:25.071Z,64.70
2018-07-25T09:45:52.662Z,63.80
2018-07-25T09:48:20.247Z,64.50
2018-07-25T09:50:48.173Z,64.70
2018-07-25T09:53:16.135Z,63.80
2018-07-25T09:55:43.844Z,64.50
2018-07-25T09:58:11.431Z,64.00
2018-07-25T10:00:44.980Z,63.80
2018-07-25T10:03:12.597Z,63.10
2018-07-25T10:05:40.136Z,62.70
2018-07-25T10:08:07.720Z,62.10
2018-07-25T10:10:35.319Z,62.60
2018-07-25T10:13:02.954Z,62.50
2018-07-25T10:15:30.553Z,62.40
2018-07-25T10:17:58.105Z,61.80
2018-07-25T10:20:26.489Z,61.00
2018-07-25T10:22:54.050Z,60.10
2018-07-25T10:25:22.195Z,59.90
2018-07-25T10:27:49.894Z,59.80
2018-07-25T10:30:17.507Z,59.50
2018-07-25T10:32:45.060Z,60.00
2018-07-25T10:35:12.649Z,58.70
2018-07-25T10:37:40.239Z,57.40
2018-07-25T10:40:08.127Z,57.20
2018-07-25T10:42:36.108Z,57.10
2018-07-25T10:45:04.781Z,56.50
2018-07-25T10:47:32.337Z,55.90
2018-07-25T10:49:59.993Z,55.30
2018-07-25T10:52:27.540Z,54.70
2018-07-25T10:54:55.239Z,55.30
2018-07-25T10:57:22.785Z,54.70
2018-07-25T10:59:50.357Z,54.90
2018-07-25T11:02:18.017Z,54.50
2018-07-25T11:04:45.534Z,54.80
2018-07-25T11:07:13.049Z,55.00
2018-07-25T11:09:40.668Z,53.90
2018-07-25T11:12:08.193Z,54.20
2018-07-25T11:14:35.782Z,53.20
2018-07-25T11:17:03.339Z,52.50
2018-07-25T11:19:30.997Z,53.00
2018-07-25T11:21:58.745Z,52.10
2018-07-25T11:24:26.313Z,51.60
2018-07-25T11:26:53.869Z,51.60
2018-07-25T11:29:21.413Z,51.00
2018-07-25T11:31:48.930Z,51.20
2018-07-25T11:34:16.469Z,50.30
2018-07-25T11:36:43.990Z,49.70
2018-07-25T11:39:12.669Z,49.40
2018-07-25T11:41:40.196Z,48.70
2018-07-25T11:44:07.773Z,46.90
2018-07-25T11:46:35.323Z,46.80
2018-07-25T11:49:03.082Z,47.80
2018-07-25T11:51:31.502Z,44.20
2018-07-25T11:53:59.162Z,43.00
2018-07-25T11:56:26.733Z,42.60
2018-07-25T11:58:54.245Z,42.20
2018-07-25T12:01:21.860Z,42.00
2018-07-25T12:03:49.362Z,40.50
2018-07-25T12:06:16.951Z,40.10
2018-07-25T12:08:44.486Z,38.70
2018-07-25T12:11:12.118Z,39.50
2018-07-25T12:13:39.652Z,39.70
2018-07-25T12:16:07.212Z,40.00
2018-07-25T12:18:34.802Z,37.90
2018-07-25T12:21:02.383Z,37.50
2018-07-25T12:23:29.929Z,38.20
2018-07-25T12:25:57.465Z,37.80
2018-07-25T12:28:25.028Z,37.60
2018-07-25T12:30:52.609Z,36.10
2018-07-25T12:33:20.197Z,36.00
2018-07-25T12:35:47.774Z,36.60
2018-07-25T12:38:15.478Z,36.90
2018-07-25T12:40:43.064Z,36.70
2018-07-25T12:43:10.614Z,34.70
2018-07-25T12:45:38.211Z,34.40
2018-07-25T12:48:05.802Z,33.90
2018-07-25T12:50:33.438Z,33.80
2018-07-25T12:53:01.010Z,34.00
2018-07-25T12:55:28.618Z,34.90
2018-07-25T13:00:23.722Z,32.90
2018-07-25T13:02:51.330Z,33.80
2018-07-25T13:05:18.870Z,34.70
2018-07-25T13:07:46.517Z,34.20
2018-07-25T13:10:14.079Z,35.60
2018-07-25T13:12:41.681Z,33.40
2018-07-25T13:15:09.249Z,33.00
2018-07-25T13:17:36.832Z,31.50
2018-07-25T13:20:05.585Z,31.10
2018-07-25T13:22:35.210Z,30.90
2018-07-25T13:25:04.501Z,31.50
2018-07-25T13:27:32.320Z,33.20
2018-07-25T13:29:59.880Z,33.70
2018-07-25T13:32:27.458Z,33.40
2018-07-25T13:34:55.038Z,33.70
2018-07-25T13:37:22.613Z,33.60
2018-07-25T13:39:50.949Z,31.60
2018-07-25T13:42:18.589Z,31.30
2018-07-25T13:44:46.189Z,31.50
2018-07-25T13:47:13.785Z,32.00
2018-07-25T13:49:41.445Z,30.60
2018-07-25T13:52:09.094Z,30.40
2018-07-25T13:54:36.693Z,30.20
2018-07-25T13:57:04.345Z,29.30
2018-07-25T13:59:31.902Z,29.30
2018-07-25T14:01:59.471Z,28.10
2018-07-25T14:04:27.021Z,27.90
2018-07-25T14:06:54.616Z,27.00
2018-07-25T14:09:22.165Z,25.80
2018-07-25T14:11:49.786Z,26.80
2018-07-25T14:14:17.321Z,28.30
2018-07-25T14:16:44.965Z,28.10
2018-07-25T14:19:12.522Z,27.30
2018-07-25T14:21:40.113Z,27.20
2018-07-25T14:24:07.889Z,25.10
2018-07-25T14:26:35.291Z,24.70
2018-07-25T14:29:03.003Z,24.10
2018-07-25T14:31:30.548Z,24.70
2018-07-25T14:33:58.093Z,24.40
2018-07-25T14:36:25.691Z,25.20
2018-07-25T14:38:53.229Z,25.90
2018-07-25T14:41:20.846Z,24.90
2018-07-25T14:43:48.726Z,23.90
2018-07-25T14:46:16.317Z,23.90
2018-07-25T14:48:43.873Z,23.00
2018-07-25T14:51:11.536Z,23.10
2018-07-25T14:53:39.077Z,23.30
2018-07-25T14:56:07.120Z,22.90
2018-07-25T14:58:34.864Z,23.30
2018-07-25T15:01:02.560Z,22.80
2018-07-25T15:03:30.150Z,23.40
2018-07-25T15:05:59.784Z,25.50
2018-07-25T15:08:27.401Z,27.30
2018-07-25T15:10:55.002Z,28.80
2018-07-25T15:13:22.688Z,28.50
2018-07-25T15:15:50.397Z,27.40
2018-07-25T15:18:17.981Z,26.10
2018-07-25T15:20:45.746Z,24.90
2018-07-25T15:23:18.992Z,23.60
2018-07-25T15:25:46.533Z,23.70
2018-07-25T15:28:14.107Z,23.30
2018-07-25T15:30:41.673Z,22.80
2018-07-25T15:33:09.590Z,22.60
2018-07-25T15:35:37.758Z,22.60
2018-07-25T15:38:05.393Z,22.90
2018-07-25T15:40:33.301Z,23.10
2018-07-25T15:43:01.050Z,23.10
2018-07-25T15:45:28.608Z,22.80
2018-07-25T15:47:56.398Z,22.60
2018-07-25T15:50:23.946Z,22.70
2018-07-25T15:52:51.819Z,22.90
2018-07-25T15:55:19.587Z,22.80
2018-07-25T15:57:47.264Z,22.30
2018-07-25T16:00:15.007Z,22.30
2018-07-25T16:02:42.829Z,22.10
2018-07-25T16:05:10.527Z,22.30
2018-07-25T16:07:38.497Z,22.30
2018-07-25T16:10:06.171Z,22.70
2018-07-25T16:12:33.700Z,23.30
2018-07-25T16:15:01.273Z,24.20
2018-07-25T16:17:28.936Z,25.00
2018-07-25T16:19:56.529Z,24.30
2018-07-25T16:22:24.089Z,24.30
2018-07-25T16:24:51.672Z,24.10
2018-07-25T16:27:19.221Z,24.10
2018-07-25T16:29:46.773Z,25.00
2018-07-25T16:32:14.344Z,23.90
2018-07-25T16:34:41.921Z,24.30
2018-07-25T16:37:09.486Z,23.80
2018-07-25T16:39:37.196Z,23.50
2018-07-25T16:42:04.774Z,24.70
2018-07-25T16:44:32.358Z,23.50
2018-07-25T16:46:59.919Z,23.00
2018-07-25T16:49:27.534Z,23.40
2018-07-25T16:51:55.098Z,23.40
2018-07-25T16:54:22.676Z,24.70
2018-07-25T16:56:50.264Z,23.70
2018-07-25T16:59:17.847Z,23.90
2018-07-25T17:01:45.420Z,23.80
2018-07-25T17:04:13.034Z,24.60
2018-07-25T17:06:40.609Z,24.80
2018-07-25T17:09:09.562Z,23.80
2018-07-25T17:11:37.167Z,24.30
2018-07-25T17:14:04.843Z,24.40
2018-07-25T17:16:32.405Z,24.90
2018-07-25T17:18:59.989Z,25.60
2018-07-25T17:23:55.157Z,28.00
2018-07-25T17:26:22.765Z,28.30
2018-07-25T17:28:50.969Z,28.20
2018-07-25T17:31:19.343Z,28.70
2018-07-25T17:33:46.914Z,29.30
2018-07-25T17:36:14.530Z,29.90
2018-07-25T17:38:42.117Z,31.00
2018-07-25T17:41:09.665Z,30.40
2018-07-25T17:43:37.222Z,31.50
2018-07-25T17:46:04.838Z,30.80
2018-07-25T17:48:32.436Z,31.10
2018-07-25T17:51:00.062Z,31.60
2018-07-25T17:53:27.585Z,31.30
2018-07-25T17:55:55.190Z,32.10
2018-07-25T17:58:22.761Z,31.70
2018-07-25T18:00:51.920Z,32.30
2018-07-25T18:03:19.533Z,32.50
2018-07-25T18:05:47.059Z,32.90
2018-07-25T18:08:14.613Z,32.30
2018-07-25T18:10:42.193Z,32.50
2018-07-25T18:13:15.329Z,32.70
2018-07-25T18:15:42.979Z,33.40
2018-07-25T18:18:10.500Z,34.70
2018-07-25T18:20:38.062Z,34.60
2018-07-25T18:23:05.865Z,33.80
2018-07-25T18:25:33.701Z,34.60
2018-07-25T18:28:01.354Z,34.70
2018-07-25T18:30:29.250Z,34.90
2018-07-25T18:32:57.166Z,35.60
2018-07-25T18:35:24.965Z,35.10
2018-07-25T18:40:46.249Z,35.50
2018-07-25T18:43:14.085Z,35.70
2018-07-25T18:45:41.731Z,36.40
2018-07-25T18:48:09.409Z,37.40
2018-07-25T18:50:37.001Z,37.50
2018-07-25T18:53:04.951Z,37.90
2018-07-25T18:55:32.613Z,38.60
2018-07-25T18:58:00.213Z,39.30
2018-07-25T19:00:27.843Z,40.30
2018-07-25T19:02:55.439Z,41.40
2018-07-25T19:05:28.563Z,42.50
2018-07-25T19:07:56.125Z,43.50
2018-07-25T19:10:23.838Z,43.60
2018-07-25T19:12:51.419Z,43.90
2018-07-25T19:15:24.533Z,44.30
2018-07-25T19:17:52.465Z,44.60
2018-07-25T19:20:20.697Z,45.20
2018-07-25T19:22:48.242Z,45.80
2018-07-25T19:25:15.906Z,46.50
2018-07-25T19:27:43.497Z,47.40
2018-07-25T19:30:11.096Z,48.40
2018-07-25T19:32:38.842Z,49.40
2018-07-25T19:35:06.450Z,49.80
2018-07-25T19:37:34.077Z,50.00
2018-07-25T19:40:01.722Z,50.50
2018-07-25T19:42:29.365Z,50.80
2018-07-25T19:44:56.930Z,51.30
2018-07-25T19:47:24.565Z,51.50
2018-07-25T19:49:52.134Z,51.90
2018-07-25T19:52:19.747Z,52.00
2018-07-25T19:54:47.778Z,52.40
2018-07-25T19:57:15.404Z,52.80
2018-07-25T19:59:42.986Z,53.30
2018-07-25T20:02:10.785Z,53.40
2018-07-25T20:07:05.943Z,53.90
2018-07-25T20:09:33.484Z,54.40
2018-07-25T20:12:01.099Z,54.30
2018-07-25T20:16:38.320Z,55.10
2018-07-25T20:19:05.881Z,55.20
2018-07-25T20:21:33.505Z,55.80
2018-07-25T20:24:01.181Z,55.80
2018-07-25T20:26:28.719Z,56.50
2018-07-25T20:28:56.362Z,56.60
2018-07-25T20:31:23.997Z,56.90
2018-07-25T20:33:51.578Z,57.30
2018-07-25T20:36:19.250Z,58.60
2018-07-25T20:38:46.860Z,57.90
2018-07-25T20:41:21.405Z,58.30
2018-07-25T20:43:48.990Z,58.10
2018-07-25T20:46:16.682Z,57.90
2018-07-25T20:48:44.355Z,57.90
2018-07-25T20:51:12.270Z,58.00
2018-07-25T20:53:40.226Z,58.10
2018-07-25T20:56:08.635Z,58.20
2018-07-25T20:58:36.247Z,58.20
2018-07-25T21:01:03.854Z,59.90
2018-07-25T21:03:31.459Z,60.20
2018-07-25T21:05:59.117Z,60.70
2018-07-25T21:08:26.741Z,61.60
2018-07-25T21:10:54.433Z,61.10
2018-07-25T21:13:22.065Z,60.90
2018-07-25T21:15:49.627Z,60.60
2018-07-25T21:18:17.226Z,60.20
2018-07-25T21:20:44.801Z,60.40
2018-07-25T21:23:12.542Z,60.30
2018-07-25T21:25:40.117Z,62.00
2018-07-25T21:28:08.794Z,62.40
2018-07-25T21:30:36.365Z,62.70
2018-07-25T21:33:04.371Z,63.70
2018-07-25T21:35:31.949Z,63.90
2018-07-25T21:37:59.588Z,64.50
2018-07-25T21:40:27.198Z,65.40
2018-07-25T21:42:54.789Z,65.80
2018-07-25T21:45:22.394Z,65.70
2018-07-25T21:47:50.738Z,65.20
2018-07-25T21:50:18.889Z,64.90
2018-07-25T21:52:46.705Z,65.10
2018-07-25T21:55:14.312Z,66.20
2018-07-25T21:57:41.910Z,66.00
2018-07-25T22:00:14.141Z,65.00
2018-07-25T22:02:42.534Z,66.30
2018-07-25T22:05:10.707Z,66.40
2018-07-25T22:07:38.352Z,66.80
2018-07-25T22:10:07.109Z,67.60
2018-07-25T22:12:34.779Z,68.30
2018-07-25T22:15:02.383Z,68.20
2018-07-25T22:17:29.982Z,68.20
2018-07-25T22:19:57.616Z,69.50
2018-07-25T22:22:25.254Z,69.80
2018-07-25T22:24:52.958Z,70.50
2018-07-25T22:27:20.514Z,70.90
2018-07-25T22:29:48.109Z,71.50
2018-07-25T22:32:15.730Z,71.80
2018-07-25T22:34:43.319Z,72.60
2018-07-25T22:37:11.037Z,73.10
2018-07-25T22:39:38.618Z,71.50
2018-07-25T22:42:06.240Z,71.50
2018-07-25T22:44:33.831Z,71.40
2018-07-25T22:47:01.513Z,71.60
2018-07-25T22:49:29.135Z,71.80
2018-07-25T22:51:56.742Z,72.50
2018-07-25T22:54:24.321Z,72.40
2018-07-25T22:56:51.922Z,72.30
2018-07-25T22:59:19.622Z,72.70
2018-07-25T23:01:47.206Z,72.90
2018-07-25T23:04:14.810Z,71.60
2018-07-25T23:06:42.389Z,71.30
2018-07-25T23:09:10.909Z,72.20
2018-07-25T23:11:38.537Z,71.80
2018-07-25T23:14:06.200Z,71.50
2018-07-25T23:16:33.812Z,71.80
2018-07-25T23:21:28.974Z,72.30
2018-07-25T23:23:56.575Z,72.30
2018-07-25T23:26:24.818Z,72.70
2018-07-25T23:28:52.413Z,73.50
2018-07-25T23:31:20.030Z,74.40
2018-07-25T23:33:47.630Z,75.10
2018-07-25T23:36:15.210Z,75.20
2018-07-25T23:38:43.117Z,75.00
2018-07-25T23:41:11.142Z,75.20
2018-07-25T23:43:38.773Z,75.50
2018-07-25T23:46:06.378Z,76.00
2018-07-25T23:48:33.977Z,76.10
2018-07-25T23:51:01.554Z,76.70
2018-07-25T23:53:29.961Z,76.10
2018-07-25T23:55:57.810Z,76.60
2018-07-25T23:58:25.370Z,76.30
